Time;durP1;ratioP1;P1;durP2;ratioP2;P2;SDS_P1;SDS_P2;PMS_P1;PMS_P2;Temp;Humidity;BMP_temperature;BMP_pressure;BME280_temperature;BME280_humidity;BME280_pressure;Samples;Min_cycle;Max_cycle;Signal;HPM_P1;HPM_P2
2021/05/17 00:01:59;;;;;;;0.70;0.70;;;9.00;99.90;;;;;;5072823;28;20365;-73
2021/05/17 00:04:32;;;;;;;1.90;1.33;;;9.10;99.90;;;;;;5072821;28;20028;-73
2021/05/17 00:07:00;;;;;;;0.43;0.43;;;9.20;99.90;;;;;;5072466;28;20071;-73
2021/05/17 00:09:26;;;;;;;0.60;0.60;;;9.20;99.90;;;;;;5054831;28;20046;-73
2021/05/17 00:11:53;;;;;;;0.40;0.40;;;9.30;99.90;;;;;;5054814;28;20549;-74
2021/05/17 00:14:19;;;;;;;0.40;0.40;;;9.20;99.90;;;;;;5054747;28;20040;-73
2021/05/17 00:16:46;;;;;;;0.60;0.60;;;9.20;99.90;;;;;;5072512;28;20025;-73
2021/05/17 00:19:13;;;;;;;1.15;0.50;;;9.10;99.90;;;;;;5054588;28;20392;-73
2021/05/17 00:21:39;;;;;;;0.60;0.60;;;9.00;99.90;;;;;;5072387;28;20104;-73
2021/05/17 00:24:06;;;;;;;2.80;0.50;;;9.10;99.90;;;;;;5054700;28;20028;-74
2021/05/17 00:26:32;;;;;;;0.50;0.50;;;9.20;99.90;;;;;;5072218;28;20059;-74
2021/05/17 00:28:58;;;;;;;0.50;0.50;;;9.20;99.90;;;;;;5072351;28;20037;-73
2021/05/17 00:31:24;;;;;;;0.30;0.30;;;9.20;99.90;;;;;;5054511;28;20028;-74
2021/05/17 00:33:50;;;;;;;0.40;0.40;;;9.20;99.90;;;;;;5054186;28;20511;-74
2021/05/17 00:36:17;;;;;;;0.30;0.30;;;9.20;99.90;;;;;;5054320;28;20025;-73
2021/05/17 00:38:43;;;;;;;0.40;0.40;;;9.30;99.90;;;;;;5072243;28;20396;-74
2021/05/17 00:41:09;;;;;;;0.50;0.50;;;9.40;99.90;;;;;;5072270;28;20020;-73
2021/05/17 00:43:37;;;;;;;0.65;0.40;;;9.40;99.90;;;;;;5054101;28;20373;-74
2021/05/17 00:46:05;;;;;;;0.40;0.40;;;9.50;99.90;;;;;;5054204;28;20031;-74
2021/05/17 00:48:31;;;;;;;0.35;0.35;;;9.50;99.90;;;;;;5072030;28;20066;-73
2021/05/17 00:50:58;;;;;;;0.40;0.40;;;9.50;99.90;;;;;;5054041;28;20119;-74
2021/05/17 00:53:24;;;;;;;0.50;0.50;;;9.70;99.90;;;;;;5072152;28;20464;-74
2021/05/17 00:55:50;;;;;;;1.08;0.50;;;10.00;99.90;;;;;;5071970;28;20040;-74
2021/05/17 00:58:16;;;;;;;0.55;0.52;;;10.20;99.90;;;;;;5054081;28;20074;-74
2021/05/17 01:00:42;;;;;;;2.85;0.40;;;10.20;99.90;;;;;;5054004;28;20063;-74
2021/05/17 01:03:09;;;;;;;0.30;0.30;;;10.20;99.90;;;;;;5071926;28;20112;-73
2021/05/17 01:05:36;;;;;;;0.47;0.47;;;10.10;99.90;;;;;;5071971;28;20029;-74
2021/05/17 01:08:03;;;;;;;0.40;0.40;;;10.10;99.90;;;;;;5071953;28;20028;-74
2021/05/17 01:10:31;;;;;;;0.40;0.40;;;10.10;99.90;;;;;;5071977;28;20025;-73
2021/05/17 01:12:57;;;;;;;2.55;0.47;;;10.10;99.90;;;;;;5071934;28;20610;-74
2021/05/17 01:15:23;;;;;;;3.30;0.50;;;10.10;99.90;;;;;;5053796;28;20016;-74
2021/05/17 01:17:49;;;;;;;0.30;0.30;;;9.90;99.90;;;;;;5055905;28;20021;-74
2021/05/17 01:20:18;;;;;;;0.38;0.38;;;9.90;99.90;;;;;;5075949;28;20029;-73
2021/05/17 01:25:24;;;;;;;0.40;0.40;;;9.90;99.90;;;;;;5075873;28;20414;-73
2021/05/17 01:27:51;;;;;;;0.68;0.43;;;9.70;99.90;;;;;;5057926;28;20050;-73
2021/05/17 01:30:19;;;;;;;2.45;0.60;;;9.60;99.90;;;;;;5076052;28;20074;-73
2021/05/17 01:32:46;;;;;;;1.40;0.45;;;9.50;99.90;;;;;;5075542;28;20028;-73
2021/05/17 01:35:13;;;;;;;0.95;0.43;;;9.50;99.90;;;;;;5075653;28;20024;-73
2021/05/17 01:37:40;;;;;;;4.43;1.00;;;9.40;99.90;;;;;;5075647;28;20111;-74
2021/05/17 01:40:07;;;;;;;1.13;0.50;;;9.40;99.90;;;;;;5075560;28;20028;-73
2021/05/17 01:42:38;;;;;;;1.83;0.70;;;9.30;99.90;;;;;;5075559;28;20052;-74
2021/05/17 01:45:05;;;;;;;2.63;1.08;;;9.20;99.90;;;;;;5057726;28;20032;-73
2021/05/17 01:47:35;;;;;;;4.53;0.77;;;9.20;99.90;;;;;;5074937;28;20037;-73
2021/05/17 01:50:02;;;;;;;2.78;0.70;;;9.20;99.90;;;;;;5075397;28;20047;-74
2021/05/17 01:52:29;;;;;;;4.18;0.85;;;9.30;99.90;;;;;;5040798;28;20020;-74
2021/05/17 01:54:56;;;;;;;2.45;0.57;;;9.20;99.90;;;;;;5075213;28;20049;-73
2021/05/17 01:57:22;;;;;;;3.22;0.80;;;9.20;99.90;;;;;;5075203;28;20048;-73
2021/05/17 01:59:48;;;;;;;2.15;0.63;;;9.20;99.90;;;;;;5075160;28;20060;-74
2021/05/17 02:02:14;;;;;;;1.52;0.60;;;9.20;99.90;;;;;;5057107;28;20396;-73
2021/05/17 02:04:40;;;;;;;1.73;0.65;;;9.10;99.90;;;;;;5057018;28;20090;-74
2021/05/17 02:07:06;;;;;;;0.68;0.60;;;9.00;99.90;;;;;;5056895;28;20021;-74
2021/05/17 02:09:34;;;;;;;0.50;0.50;;;9.00;99.90;;;;;;5074990;28;20077;-73
2021/05/17 02:12:03;;;;;;;0.60;0.60;;;8.90;99.90;;;;;;5074905;28;20481;-73
2021/05/17 02:14:30;;;;;;;1.02;0.70;;;9.00;99.90;;;;;;5074959;28;20017;-73
2021/05/17 02:16:56;;;;;;;0.57;0.50;;;8.90;99.90;;;;;;5074736;28;20384;-73
2021/05/17 02:19:24;;;;;;;1.48;0.40;;;8.80;99.90;;;;;;5074851;28;20024;-73
2021/05/17 02:21:50;;;;;;;1.92;0.70;;;8.90;99.90;;;;;;5074859;28;20274;-73
2021/05/17 02:24:16;;;;;;;0.60;0.60;;;8.90;99.90;;;;;;5074815;28;20036;-74
2021/05/17 02:26:42;;;;;;;3.95;0.70;;;8.90;99.90;;;;;;5074578;28;20146;-74
2021/05/17 02:29:10;;;;;;;8.85;0.80;;;9.00;99.90;;;;;;5073349;28;20028;-73
2021/05/17 02:31:37;;;;;;;0.85;0.50;;;8.90;99.90;;;;;;5074608;28;20020;-73
2021/05/17 02:34:03;;;;;;;1.38;0.70;;;8.80;99.90;;;;;;5074373;28;20039;-74
2021/05/17 02:36:29;;;;;;;1.27;0.63;;;8.90;99.90;;;;;;5056550;28;20396;-73
2021/05/17 02:38:55;;;;;;;3.65;0.90;;;8.90;99.90;;;;;;5056439;28;20034;-74
2021/05/17 02:41:22;;;;;;;2.05;0.70;;;9.00;99.90;;;;;;5074504;28;20025;-74
2021/05/17 02:43:49;;;;;;;0.95;0.65;;;9.00;99.90;;;;;;5074353;28;20467;-74
2021/05/17 02:46:16;;;;;;;0.50;0.50;;;9.10;99.90;;;;;;5056237;28;20021;-74
2021/05/17 02:48:43;;;;;;;0.65;0.65;;;9.10;99.90;;;;;;5074265;28;20048;-74
2021/05/17 02:51:10;;;;;;;3.10;0.85;;;9.20;99.90;;;;;;5039645;28;20438;-74
2021/05/17 02:53:36;;;;;;;1.02;0.60;;;9.20;99.90;;;;;;5056393;28;20021;-74
2021/05/17 02:56:16;;;;;;;4.10;0.68;;;9.10;99.90;;;;;;5074158;28;20016;-73
2021/05/17 02:58:44;;;;;;;0.93;0.65;;;9.10;99.90;;;;;;5039653;28;20024;-74
2021/05/17 03:01:13;;;;;;;3.25;1.02;;;9.00;99.90;;;;;;5056311;28;20024;-74
2021/05/17 03:03:50;;;;;;;2.05;0.50;;;9.00;99.90;;;;;;5056239;28;20162;-74
2021/05/17 03:06:27;;;;;;;0.63;0.50;;;8.80;99.90;;;;;;5056022;28;20017;-73
2021/05/17 03:08:59;;;;;;;2.55;0.80;;;8.60;99.90;;;;;;5073882;28;20452;-74
2021/05/17 03:11:27;;;;;;;3.30;0.60;;;8.60;99.90;;;;;;5073960;28;20013;-73
2021/05/17 03:13:54;;;;;;;1.33;0.73;;;8.70;99.90;;;;;;5039320;28;20369;-73
2021/05/17 03:16:25;;;;;;;2.40;0.80;;;8.80;99.90;;;;;;5055824;28;20025;-74
2021/05/17 03:18:53;;;;;;;8.05;0.98;;;8.80;99.90;;;;;;5055818;28;20391;-73
2021/05/17 03:21:21;;;;;;;1.75;0.60;;;8.70;99.90;;;;;;5055618;28;20024;-73
2021/05/17 03:23:49;;;;;;;0.90;0.90;;;8.60;99.90;;;;;;5073520;28;20021;-73
2021/05/17 03:26:20;;;;;;;3.60;0.93;;;8.70;99.90;;;;;;5073484;28;20546;-74
2021/05/17 03:28:46;;;;;;;2.55;0.80;;;8.90;99.90;;;;;;5055534;28;20455;-73
2021/05/17 03:31:12;;;;;;;0.70;0.60;;;9.00;99.90;;;;;;5055502;28;20373;-74
2021/05/17 03:33:38;;;;;;;0.40;0.40;;;8.90;99.90;;;;;;5087221;22;20049;-70
2021/05/17 03:36:05;;;;;;;0.50;0.50;;;9.00;99.90;;;;;;5055178;28;20479;-70
2021/05/17 03:38:31;;;;;;;2.40;0.50;;;8.90;99.90;;;;;;5055327;28;20029;-70
2021/05/17 03:40:57;;;;;;;2.83;0.60;;;8.70;99.90;;;;;;5072821;28;20020;-70
2021/05/17 03:43:22;;;;;;;8.60;0.90;;;8.70;99.90;;;;;;5073253;28;20050;-70
2021/05/17 03:45:48;;;;;;;6.15;0.98;;;8.60;99.90;;;;;;5054904;28;20032;-70
2021/05/17 03:48:14;;;;;;;2.67;0.65;;;8.50;99.90;;;;;;5073000;28;20029;-70
2021/05/17 03:50:39;;;;;;;3.78;1.00;;;8.60;99.90;;;;;;5072898;28;20095;-70
2021/05/17 03:53:05;;;;;;;1.52;0.55;;;8.60;99.90;;;;;;5073050;28;20021;-71
2021/05/17 03:55:31;;;;;;;2.78;0.73;;;8.60;99.90;;;;;;5072919;28;20029;-70
2021/05/17 03:57:59;;;;;;;2.75;0.63;;;8.60;99.90;;;;;;5054868;28;20268;-70
2021/05/17 04:00:30;;;;;;;2.00;0.52;;;8.70;99.90;;;;;;5054796;28;20547;-70
2021/05/17 04:02:57;;;;;;;4.45;1.15;;;8.70;99.90;;;;;;5072639;28;20108;-70
2021/05/17 04:15:43;;;;;;;2.53;1.02;;;8.80;99.90;;;;;;5072467;28;20095;-70
2021/05/17 04:18:10;;;;;;;3.55;0.95;;;8.90;99.90;;;;;;5072463;28;20472;-70
2021/05/17 04:20:36;;;;;;;4.30;0.98;;;8.90;99.90;;;;;;5054363;28;20552;-70
2021/05/17 04:23:02;;;;;;;1.90;0.90;;;8.60;99.90;;;;;;5054520;28;20051;-70
2021/05/17 04:25:28;;;;;;;5.82;1.08;;;8.50;99.90;;;;;;5054212;28;20029;-70
2021/05/17 04:27:54;;;;;;;2.83;0.70;;;8.50;99.90;;;;;;5071945;28;20036;-70
2021/05/17 04:30:20;;;;;;;4.80;1.00;;;8.60;99.90;;;;;;5054394;28;20506;-70
2021/05/17 04:32:46;;;;;;;5.07;1.10;;;8.50;99.90;;;;;;5054204;28;20025;-70
2021/05/17 04:35:12;;;;;;;4.78;1.10;;;8.60;99.90;;;;;;5054103;28;20058;-71
2021/05/17 04:37:38;;;;;;;3.70;1.05;;;8.50;99.90;;;;;;5037405;28;20086;-70
2021/05/17 04:40:05;;;;;;;2.65;1.05;;;8.60;99.90;;;;;;5072009;28;20032;-70
2021/05/17 04:42:31;;;;;;;2.72;0.85;;;8.70;99.90;;;;;;5037676;28;20032;-70
2021/05/17 04:44:57;;;;;;;1.95;1.52;;;8.70;99.90;;;;;;5072044;28;20476;-70
2021/05/17 04:47:23;;;;;;;5.43;1.55;;;8.70;99.90;;;;;;5071932;28;20104;-70
2021/05/17 04:49:49;;;;;;;6.07;1.23;;;8.70;99.90;;;;;;5071987;28;20021;-70
2021/05/17 04:52:15;;;;;;;5.68;0.90;;;8.70;99.90;;;;;;5071218;28;20464;-70
2021/05/17 04:54:41;;;;;;;4.95;1.00;;;8.80;99.90;;;;;;5071883;28;20028;-70
2021/05/17 04:57:06;;;;;;;4.88;1.10;;;8.80;99.90;;;;;;5037136;28;20025;-70
2021/05/17 04:59:32;;;;;;;5.68;1.25;;;8.70;99.90;;;;;;5071809;28;20526;-70
2021/05/17 05:01:58;;;;;;;6.50;1.08;;;8.80;99.90;;;;;;5053927;28;20032;-70
2021/05/17 05:04:24;;;;;;;6.57;1.40;;;8.80;99.90;;;;;;5053616;28;20403;-70
2021/05/17 05:06:49;;;;;;;3.00;0.90;;;8.80;99.90;;;;;;5053712;28;20046;-70
2021/05/17 05:09:15;;;;;;;5.55;1.13;;;8.80;99.90;;;;;;5071748;28;20028;-70
2021/05/17 05:11:41;;;;;;;5.97;1.48;;;8.80;99.90;;;;;;5071790;28;20056;-70
2021/05/17 05:14:06;;;;;;;18.55;1.92;;;8.70;99.90;;;;;;5053774;28;20054;-70
2021/05/17 05:16:32;;;;;;;5.68;1.40;;;8.70;99.90;;;;;;5071669;28;20056;-71
2021/05/17 05:18:58;;;;;;;7.70;1.30;;;8.70;99.90;;;;;;5071715;28;20033;-70
2021/05/17 05:21:24;;;;;;;12.38;2.45;;;8.60;99.90;;;;;;5071611;28;20028;-70
2021/05/17 05:23:49;;;;;;;8.27;1.60;;;8.60;99.90;;;;;;5071960;28;20025;-70
2021/05/17 05:29:09;;;;;;;10.07;1.77;;;9.00;99.90;;;;;;5071532;28;20032;-71
2021/05/17 05:31:48;;;;;;;6.72;1.30;;;9.00;99.90;;;;;;5071657;28;20017;-71
2021/05/17 05:34:14;;;;;;;0.82;0.70;;;9.00;99.90;;;;;;5053592;28;20512;-71
2021/05/17 05:36:40;;;;;;;6.93;1.23;;;8.90;99.90;;;;;;5053460;28;20020;-71
2021/05/17 05:39:06;;;;;;;5.90;1.85;;;8.80;99.90;;;;;;5073218;28;20485;-71
2021/05/17 05:41:32;;;;;;;2.20;1.10;;;8.70;99.90;;;;;;5071955;28;20020;-71
2021/05/17 05:43:58;;;;;;;9.02;1.33;;;8.70;99.90;;;;;;5080508;28;20471;-71
2021/05/17 05:46:23;;;;;;;5.82;0.90;;;8.70;99.90;;;;;;5091456;28;20145;-71
2021/05/17 05:48:49;;;;;;;1.58;1.05;;;8.70;99.90;;;;;;5059301;28;20029;-72
2021/05/17 05:51:22;;;;;;;8.77;1.00;;;8.70;99.90;;;;;;5071478;28;20035;-71
2021/05/17 05:53:49;;;;;;;3.65;0.77;;;8.90;99.90;;;;;;5071408;28;20028;-71
2021/05/17 05:56:16;;;;;;;2.70;1.05;;;9.00;99.90;;;;;;5071119;28;20027;-71
2021/05/17 05:58:43;;;;;;;7.28;1.33;;;9.00;99.90;;;;;;5071200;28;20059;-71
2021/05/17 06:01:10;;;;;;;2.03;0.75;;;9.00;99.90;;;;;;5071115;28;20024;-71
2021/05/17 06:03:36;;;;;;;2.08;0.70;;;9.20;99.90;;;;;;5071620;28;20468;-71
2021/05/17 06:06:02;;;;;;;2.65;1.10;;;9.20;99.90;;;;;;5074875;28;20024;-72
2021/05/17 06:08:28;;;;;;;4.95;1.05;;;9.20;99.90;;;;;;5074863;28;20024;-71
2021/05/17 06:10:54;;;;;;;0.98;0.60;;;9.20;99.90;;;;;;5074759;28;20028;-71
2021/05/17 06:13:21;;;;;;;3.47;0.90;;;9.40;99.90;;;;;;5074779;28;20128;-71
2021/05/17 06:15:47;;;;;;;3.00;1.00;;;9.30;99.90;;;;;;5074638;28;20043;-71
2021/05/17 06:18:14;;;;;;;3.10;1.00;;;9.50;99.90;;;;;;5074727;28;20028;-72
2021/05/17 06:20:42;;;;;;;2.42;0.73;;;9.60;99.90;;;;;;5056362;28;20377;-71
2021/05/17 06:23:09;;;;;;;4.22;0.82;;;9.60;99.90;;;;;;5074641;28;20384;-72
2021/05/17 06:25:35;;;;;;;7.50;1.27;;;9.80;99.90;;;;;;5074623;28;20074;-71
2021/05/17 06:28:05;;;;;;;10.88;1.15;;;10.00;99.90;;;;;;5074478;28;20020;-70
2021/05/17 06:30:35;;;;;;;2.40;0.95;;;9.90;99.90;;;;;;5074665;28;20013;-71
2021/05/17 06:33:04;;;;;;;2.50;0.68;;;10.00;99.90;;;;;;5056858;28;20032;-71
2021/05/17 06:35:33;;;;;;;2.33;0.75;;;10.10;99.90;;;;;;5074003;28;20078;-71
2021/05/17 06:37:58;;;;;;;5.05;0.90;;;10.30;99.90;;;;;;5056483;28;20036;-71
2021/05/17 06:40:24;;;;;;;5.18;0.75;;;10.50;99.90;;;;;;5074268;28;20035;-72
2021/05/17 06:42:50;;;;;;;2.33;0.70;;;10.80;99.90;;;;;;5074299;28;20119;-71
2021/05/17 06:45:18;;;;;;;0.73;0.73;;;10.40;99.90;;;;;;5073535;28;20028;-71
2021/05/17 06:47:43;;;;;;;3.50;0.90;;;10.40;99.90;;;;;;5072220;28;20173;-71
2021/05/17 06:50:10;;;;;;;1.88;0.80;;;10.50;99.90;;;;;;5054233;28;20104;-71
2021/05/17 06:52:36;;;;;;;0.47;0.47;;;10.70;99.90;;;;;;5038896;28;20017;-71
2021/05/17 06:55:09;;;;;;;6.10;0.85;;;10.70;99.90;;;;;;5038375;28;20502;-71
2021/05/17 07:00:30;;;;;;;2.38;1.00;;;10.80;99.90;;;;;;5069881;28;20024;-71
2021/05/17 07:03:01;;;;;;;4.85;1.30;;;10.90;99.90;;;;;;5055108;28;20078;-71
2021/05/17 07:05:28;;;;;;;2.80;1.23;;;10.90;99.90;;;;;;5068903;28;20024;-71
2021/05/17 07:13:07;;;;;;;7.03;0.90;;;10.90;99.90;;;;;;5051917;28;20017;-71
2021/05/17 07:15:33;;;;;;;2.00;1.00;;;11.10;99.90;;;;;;5054205;28;20032;-71
2021/05/17 07:17:59;;;;;;;6.03;0.88;;;11.10;99.90;;;;;;5054806;28;20028;-72
2021/05/17 07:20:32;;;;;;;6.80;1.10;;;11.10;99.60;;;;;;5072862;28;20518;-71
2021/05/17 07:25:42;;;;;;;4.40;0.75;;;11.50;96.00;;;;;;5072953;28;20083;-71
2021/05/17 07:28:08;;;;;;;7.55;0.77;;;11.40;97.50;;;;;;5072410;28;20056;-71
2021/05/17 07:30:34;;;;;;;9.82;1.55;;;11.20;96.10;;;;;;5054833;28;20064;-72
2021/05/17 07:33:00;;;;;;;5.38;1.52;;;11.20;97.10;;;;;;5071207;28;20430;-72
2021/05/17 07:35:26;;;;;;;7.72;1.05;;;11.00;96.50;;;;;;5071416;28;20047;-71
2021/05/17 07:37:52;;;;;;;6.38;1.27;;;11.00;96.70;;;;;;5072404;28;20392;-71
2021/05/17 07:40:17;;;;;;;2.13;0.82;;;10.90;98.40;;;;;;5072123;28;20028;-73
2021/05/17 07:42:43;;;;;;;5.13;1.42;;;10.80;98.10;;;;;;5072370;28;20028;-71
2021/05/17 07:45:10;;;;;;;6.57;1.02;;;10.90;99.60;;;;;;5071834;28;20028;-71
2021/05/17 07:47:36;;;;;;;7.55;1.33;;;10.90;97.50;;;;;;5072573;28;20029;-71
2021/05/17 07:50:02;;;;;;;5.10;1.08;;;10.80;97.60;;;;;;5071571;28;20451;-71
2021/05/17 07:52:28;;;;;;;1.95;0.98;;;11.20;98.70;;;;;;5072055;28;20067;-71
2021/05/17 07:54:53;;;;;;;9.63;1.42;;;11.20;97.00;;;;;;5071883;28;20110;-71
2021/05/17 07:57:19;;;;;;;6.43;1.00;;;11.10;96.50;;;;;;5071313;28;20025;-71
2021/05/17 07:59:45;;;;;;;7.57;1.08;;;11.10;97.30;;;;;;5071932;28;20029;-71
2021/05/17 08:02:13;;;;;;;8.13;1.50;;;11.20;96.60;;;;;;5071436;28;20441;-71
2021/05/17 08:04:38;;;;;;;2.90;0.82;;;11.40;96.00;;;;;;5072624;28;20032;-71
2021/05/17 08:07:04;;;;;;;2.95;0.63;;;11.50;94.30;;;;;;5071465;28;20039;-71
2021/05/17 08:09:30;;;;;;;26.88;1.65;;;11.30;93.50;;;;;;5071694;28;20084;-72
2021/05/17 08:11:56;;;;;;;12.75;1.15;;;11.30;94.70;;;;;;5071592;28;20100;-72
2021/05/17 08:14:22;;;;;;;1.25;0.70;;;11.30;94.70;;;;;;5053417;28;20444;-71
2021/05/17 08:16:48;;;;;;;6.57;0.88;;;11.00;94.40;;;;;;5071604;28;20050;-72
2021/05/17 08:19:14;;;;;;;3.67;0.75;;;10.90;96.90;;;;;;5071056;28;20024;-72
2021/05/17 08:21:41;;;;;;;4.00;1.10;;;11.10;99.40;;;;;;5071566;28;20476;-72
2021/05/17 08:24:07;;;;;;;2.70;0.75;;;10.90;99.90;;;;;;5071104;28;20376;-72
2021/05/17 08:26:33;;;;;;;4.40;1.70;;;10.90;99.90;;;;;;5071149;28;20536;-71
2021/05/17 08:28:59;;;;;;;4.53;1.55;;;10.80;99.90;;;;;;5070941;28;20065;-71
2021/05/17 08:31:26;;;;;;;8.57;0.95;;;11.30;99.90;;;;;;5053379;28;20056;-71
2021/05/17 08:33:52;;;;;;;1.13;0.70;;;11.60;99.90;;;;;;5053333;28;20032;-72
2021/05/17 08:36:18;;;;;;;8.60;0.77;;;11.80;95.40;;;;;;5070907;28;20522;-72
2021/05/17 08:38:44;;;;;;;7.40;0.47;;;12.00;91.90;;;;;;5070907;28;20476;-72
2021/05/17 08:41:13;;;;;;;4.63;1.00;;;12.30;92.10;;;;;;5052966;28;20107;-71
2021/05/17 08:43:42;;;;;;;7.20;0.77;;;12.40;89.90;;;;;;5071053;28;20538;-71
2021/05/17 08:46:10;;;;;;;7.88;1.00;;;12.20;88.70;;;;;;5070901;28;20033;-71
2021/05/17 08:48:47;;;;;;;5.97;0.70;;;12.30;88.50;;;;;;5070474;28;20024;-71
2021/05/17 08:51:23;;;;;;;30.20;2.53;;;12.40;88.00;;;;;;5067710;28;20024;-71
2021/05/17 08:53:51;;;;;;;4.60;0.70;;;12.30;83.50;;;;;;5052551;28;20031;-72
2021/05/17 08:56:20;;;;;;;2.45;0.40;;;12.40;84.00;;;;;;5070789;28;20132;-72
2021/05/17 08:58:53;;;;;;;0.45;0.43;;;12.70;83.50;;;;;;5070741;28;20387;-72
2021/05/17 09:01:19;;;;;;;0.40;0.40;;;12.70;83.10;;;;;;5070967;28;20384;-72
2021/05/17 09:04:02;;;;;;;1.35;0.60;;;12.70;83.10;;;;;;5063454;28;20025;-72
2021/05/17 09:06:41;;;;;;;1.40;0.30;;;13.10;83.20;;;;;;5067839;28;20020;-72
2021/05/17 09:09:32;;;;;;;1.92;0.52;;;12.70;82.10;;;;;;5035730;28;20032;-72
2021/05/17 09:12:16;;;;;;;7.38;0.40;;;13.10;79.90;;;;;;5053202;28;20036;-72
2021/05/17 09:14:42;;;;;;;3.85;1.40;;;13.10;78.80;;;;;;5033088;28;20551;-72
2021/05/17 09:17:10;;;;;;;4.78;2.55;;;13.80;78.70;;;;;;5070741;28;20100;-72
2021/05/17 09:19:39;;;;;;;1.65;0.57;;;13.90;75.70;;;;;;5070732;28;20029;-72
2021/05/17 09:22:16;;;;;;;3.65;0.50;;;13.70;73.70;;;;;;5070528;28;20025;-72
2021/05/17 09:24:53;;;;;;;5.07;1.02;;;13.20;75.60;;;;;;5070894;28;20028;-72
2021/05/17 09:27:30;;;;;;;5.25;1.13;;;12.80;76.60;;;;;;5070327;28;20028;-72
2021/05/17 09:30:01;;;;;;;0.98;0.77;;;12.70;79.50;;;;;;5070802;28;20032;-72
2021/05/17 09:32:29;;;;;;;0.63;0.57;;;13.00;80.70;;;;;;5070259;28;20099;-72
2021/05/17 09:35:06;;;;;;;4.88;0.68;;;13.10;79.30;;;;;;5070585;28;20028;-72
2021/05/17 09:37:48;;;;;;;1.95;0.60;;;13.40;78.50;;;;;;5070160;28;20399;-72
2021/05/17 09:40:28;;;;;;;1.08;0.47;;;13.10;77.90;;;;;;5070739;28;20522;-72
2021/05/17 09:43:01;;;;;;;1.67;0.55;;;13.10;79.20;;;;;;5074048;28;20142;-72
2021/05/17 09:45:44;;;;;;;12.57;1.55;;;12.80;78.80;;;;;;5050213;28;20024;-72
2021/05/17 09:48:19;;;;;;;2.63;0.60;;;12.60;80.20;;;;;;5072486;28;20028;-72
2021/05/17 09:51:10;;;;;;;3.17;0.40;;;12.20;80.80;;;;;;5074404;28;20021;-72
2021/05/17 09:53:40;;;;;;;2.45;0.47;;;12.00;81.10;;;;;;5069676;28;20379;-70
2021/05/17 09:56:12;;;;;;;0.52;0.30;;;12.10;81.60;;;;;;5056244;28;20028;-70
2021/05/17 09:58:42;;;;;;;2.38;0.50;;;12.50;81.50;;;;;;5052981;28;20107;-71
2021/05/17 10:01:12;;;;;;;1.10;0.50;;;12.50;80.70;;;;;;5053136;28;20361;-72
2021/05/17 10:03:43;;;;;;;0.40;0.40;;;12.70;79.80;;;;;;5074579;28;20028;-72
2021/05/17 10:06:11;;;;;;;3.72;0.60;;;12.90;79.60;;;;;;5056186;28;20044;-72
2021/05/17 10:08:37;;;;;;;5.07;1.30;;;13.10;80.30;;;;;;5067171;28;20078;-73
2021/05/17 10:11:06;;;;;;;6.03;0.65;;;13.20;78.70;;;;;;5055185;28;20031;-72
2021/05/17 10:13:34;;;;;;;1.60;1.08;;;13.20;78.30;;;;;;5054191;28;20020;-72
2021/05/17 10:16:09;;;;;;;1.17;1.00;;;13.00;77.40;;;;;;5073907;28;20021;-73
2021/05/17 10:18:39;;;;;;;7.68;0.65;;;13.10;77.50;;;;;;5055748;28;20047;-72
2021/05/17 10:21:17;;;;;;;5.85;1.10;;;12.90;76.90;;;;;;5052612;28;20053;-72
2021/05/17 10:23:44;;;;;;;1.77;0.90;;;12.60;78.00;;;;;;5073554;28;20496;-72
2021/05/17 10:26:13;;;;;;;1.60;0.52;;;13.00;78.20;;;;;;5073752;28;20028;-72
2021/05/17 10:28:46;;;;;;;2.47;0.38;;;13.20;78.10;;;;;;5068837;28;20025;-72
2021/05/17 10:31:17;;;;;;;0.70;0.40;;;13.00;77.30;;;;;;5055607;28;20720;-72
2021/05/17 10:37:01;;;;;;;2.38;0.60;;;12.80;76.70;;;;;;5073308;28;20051;-71
2021/05/17 10:39:41;;;;;;;2.03;0.82;;;12.90;77.90;;;;;;5073257;28;20096;-71
2021/05/17 10:42:32;;;;;;;1.60;0.50;;;12.90;76.90;;;;;;5064429;28;20023;-72
2021/05/17 10:48:21;;;;;;;4.18;1.13;;;13.40;77.90;;;;;;5063219;28;20480;-72
2021/05/17 10:51:09;;;;;;;0.30;0.30;;;13.40;76.00;;;;;;5066807;28;20020;-70
2021/05/17 10:57:00;;;;;;;0.93;0.60;;;13.40;74.80;;;;;;5034963;28;20484;-73
2021/05/17 11:02:23;;;;;;;5.07;0.95;;;13.70;73.20;;;;;;5074232;28;20021;-72
2021/05/17 11:04:48;;;;;;;0.45;0.40;;;13.50;72.40;;;;;;5073804;28;20483;-73
2021/05/17 11:07:24;;;;;;;5.13;0.60;;;13.70;72.60;;;;;;5055140;28;20132;-72
2021/05/17 11:10:10;;;;;;;1.10;0.55;;;13.60;70.90;;;;;;5067071;28;20425;-74
2021/05/17 11:12:43;;;;;;;1.95;0.77;;;14.00;71.20;;;;;;5038600;28;20480;-73
2021/05/17 11:15:14;;;;;;;0.82;0.40;;;14.00;70.60;;;;;;5074111;28;20017;-73
2021/05/17 11:18:07;;;;;;;9.90;0.65;;;14.00;70.40;;;;;;5073390;28;20095;-73
2021/05/17 11:23:08;;;;;;;5.00;0.77;;;14.20;68.80;;;;;;5056375;28;20029;-74
2021/05/17 11:25:55;;;;;;;5.32;0.60;;;14.10;70.30;;;;;;5039079;28;20035;-74
2021/05/17 11:28:40;;;;;;;5.18;1.25;;;14.80;70.30;;;;;;5073571;28;20024;-74
2021/05/17 11:33:56;;;;;;;15.25;1.00;;;14.90;67.80;;;;;;5073921;28;20025;-74
2021/05/17 11:36:27;;;;;;;7.45;1.10;;;15.00;68.40;;;;;;5064406;28;20035;-74
2021/05/17 11:39:08;;;;;;;9.23;0.70;;;15.10;68.00;;;;;;5073734;28;20147;-73
2021/05/17 11:41:45;;;;;;;3.22;0.63;;;15.70;67.10;;;;;;5038934;28;20025;-74
2021/05/17 11:44:28;;;;;;;5.78;1.13;;;15.30;65.10;;;;;;5047833;28;20047;-74
2021/05/17 11:47:05;;;;;;;1.98;0.60;;;15.10;64.50;;;;;;5039097;28;20024;-73
2021/05/17 11:49:32;;;;;;;2.70;0.60;;;15.20;63.70;;;;;;5073564;28;20574;-74
2021/05/17 11:52:08;;;;;;;3.03;0.55;;;14.80;65.50;;;;;;5038981;28;20032;-74
2021/05/17 11:54:40;;;;;;;0.38;0.30;;;14.30;65.20;;;;;;5051601;28;20021;-74
2021/05/17 11:57:08;;;;;;;4.80;0.43;;;14.20;67.30;;;;;;5037857;28;20143;-73
2021/05/17 11:59:35;;;;;;;18.48;1.63;;;14.60;66.20;;;;;;5054988;28;20032;-73
2021/05/17 12:02:03;;;;;;;1.23;0.50;;;14.70;66.50;;;;;;5072918;28;20065;-74
2021/05/17 12:04:35;;;;;;;3.85;0.50;;;14.60;64.90;;;;;;5054749;28;20029;-74
2021/05/17 12:07:03;;;;;;;27.98;1.13;;;14.50;65.00;;;;;;5072693;28;20028;-74
2021/05/17 12:09:42;;;;;;;2.20;0.68;;;14.50;65.80;;;;;;5055262;28;20024;-73
2021/05/17 12:12:28;;;;;;;4.40;0.63;;;14.60;63.90;;;;;;5059692;28;20127;-73
2021/05/17 12:14:56;;;;;;;1.40;0.40;;;14.50;64.50;;;;;;5038039;28;20496;-74
2021/05/17 12:17:26;;;;;;;2.92;0.90;;;14.60;65.60;;;;;;5073271;28;20537;-74
2021/05/17 12:19:53;;;;;;;2.38;0.88;;;14.60;65.90;;;;;;5067317;28;20044;-73
2021/05/17 12:22:19;;;;;;;5.10;0.77;;;14.80;64.70;;;;;;5072686;28;20025;-73
2021/05/17 12:24:45;;;;;;;7.05;0.57;;;15.00;63.70;;;;;;5054672;28;20369;-74
2021/05/17 12:27:13;;;;;;;6.07;0.73;;;15.00;62.10;;;;;;5071779;28;20025;-74
2021/05/17 12:29:51;;;;;;;1.85;0.95;;;15.10;62.00;;;;;;5072397;28;20032;-74
2021/05/17 12:32:18;;;;;;;2.13;0.60;;;15.10;61.80;;;;;;5072437;28;20016;-74
2021/05/17 12:34:58;;;;;;;0.77;0.38;;;15.10;61.70;;;;;;5072102;28;20016;-74
2021/05/17 12:37:30;;;;;;;6.03;0.77;;;14.90;61.50;;;;;;5054204;28;20400;-74
2021/05/17 12:40:12;;;;;;;3.65;0.85;;;15.10;62.00;;;;;;5071239;28;20419;-74
2021/05/17 12:42:38;;;;;;;21.73;1.70;;;15.10;62.40;;;;;;5054655;28;20500;-74
2021/05/17 12:45:13;;;;;;;12.35;1.10;;;15.30;65.00;;;;;;5072460;28;20388;-74
2021/05/17 12:47:44;;;;;;;9.30;0.98;;;15.70;62.40;;;;;;5054320;28;20028;-73
2021/05/17 12:50:20;;;;;;;11.13;1.17;;;15.90;60.50;;;;;;5053885;28;20034;-74
2021/05/17 12:53:01;;;;;;;17.83;3.63;;;15.90;59.90;;;;;;5064881;28;20028;-74
2021/05/17 12:55:27;;;;;;;4.82;1.00;;;15.70;60.40;;;;;;5054145;28;20166;-74
2021/05/17 12:58:00;;;;;;;4.88;0.60;;;15.70;60.40;;;;;;5052716;28;20107;-78
2021/05/17 13:00:37;;;;;;;5.25;1.20;;;15.90;60.90;;;;;;5052651;28;20052;-74
2021/05/17 13:03:04;;;;;;;4.40;0.65;;;15.50;59.60;;;;;;5072450;28;20021;-74
2021/05/17 13:05:50;;;;;;;4.95;1.17;;;15.40;61.20;;;;;;5071983;28;20029;-73
2021/05/17 13:08:17;;;;;;;3.42;1.10;;;15.10;59.80;;;;;;5069317;28;20025;-74
2021/05/17 13:10:57;;;;;;;0.75;0.43;;;14.80;59.90;;;;;;5071600;28;20013;-74
2021/05/17 13:13:44;;;;;;;20.08;1.48;;;14.60;61.30;;;;;;5066395;28;20471;-74
2021/05/17 13:16:35;;;;;;;7.38;0.60;;;14.70;61.20;;;;;;5071528;28;20020;-74
2021/05/17 13:19:21;;;;;;;2.40;0.70;;;14.60;61.20;;;;;;5033569;28;20040;-76
2021/05/17 13:31:06;;;;;;;7.13;0.77;;;15.00;61.80;;;;;;5067162;28;20035;-76
2021/05/17 13:33:48;;;;;;;18.45;2.42;;;14.90;61.70;;;;;;5053238;28;20051;-76
2021/05/17 13:36:16;;;;;;;2.53;0.52;;;14.70;61.40;;;;;;5053804;28;20108;-76
2021/05/17 13:38:45;;;;;;;28.05;1.55;;;14.70;62.90;;;;;;5036185;28;20041;-76
2021/05/17 13:41:11;;;;;;;6.32;0.73;;;13.90;66.90;;;;;;5052618;28;20318;-76
2021/05/17 13:43:38;;;;;;;13.02;1.15;;;13.00;69.30;;;;;;5070779;28;20104;-75
2021/05/17 13:46:06;;;;;;;3.40;0.40;;;12.40;70.80;;;;;;5052342;28;20450;-76
2021/05/17 13:48:32;;;;;;;6.05;1.00;;;12.30;74.80;;;;;;5070726;28;20104;-76
2021/05/17 13:50:58;;;;;;;2.88;0.63;;;12.10;75.00;;;;;;5052326;28;20083;-76
2021/05/17 13:53:25;;;;;;;6.75;1.45;;;12.30;74.30;;;;;;5052930;28;20032;-76
2021/05/17 13:55:51;;;;;;;0.43;0.43;;;12.10;73.60;;;;;;5052453;28;20107;-76